Time;durP1;ratioP1;P1;durP2;ratioP2;P2;SDS_P1;SDS_P2;PMS_P1;PMS_P2;Temp;Humidity;BMP_temperature;BMP_pressure;BME280_temperature;BME280_humidity;BME280_pressure;Samples;Min_cycle;Max_cycle;Signal;HPM_P1;HPM_P2
2021/12/19 00:01:12;;;;;;;87.40;33.80;;;3.00;99.90;;;;;;5016303;28;20033;-88
2021/12/19 00:03:56;;;;;;;96.43;33.47;;;2.30;99.90;;;;;;5018011;28;20132;-89
2021/12/19 00:09:06;;;;;;;135.20;31.05;;;2.20;99.90;;;;;;5029116;28;20496;-89
2021/12/19 00:11:32;;;;;;;82.18;30.88;;;2.10;99.90;;;;;;5032832;28;20025;-88
2021/12/19 00:14:00;;;;;;;100.28;31.50;;;2.00;99.90;;;;;;5015338;28;20025;-88
2021/12/19 00:16:26;;;;;;;140.02;32.00;;;1.90;99.90;;;;;;5032729;28;20041;-88
2021/12/19 00:18:52;;;;;;;89.47;29.35;;;2.70;99.90;;;;;;5015490;28;20021;-89
2021/12/19 00:21:19;;;;;;;86.03;28.77;;;2.00;99.90;;;;;;5033064;28;20116;-89
2021/12/19 00:23:47;;;;;;;161.68;29.33;;;2.00;99.90;;;;;;5032032;28;20026;-88
2021/12/19 00:26:15;;;;;;;125.68;28.67;;;2.10;99.90;;;;;;5014894;28;20040;-88
2021/12/19 00:28:41;;;;;;;117.18;30.23;;;2.00;99.90;;;;;;5031927;28;20539;-89
2021/12/19 00:31:08;;;;;;;94.95;29.48;;;2.00;99.90;;;;;;5014723;28;20033;-88
2021/12/19 00:33:33;;;;;;;79.60;28.75;;;2.20;99.90;;;;;;5014890;28;20385;-88
2021/12/19 00:35:59;;;;;;;64.57;29.20;;;2.30;99.90;;;;;;5032594;28;20033;-89
2021/12/19 00:38:25;;;;;;;64.75;29.65;;;3.10;99.90;;;;;;5032480;28;20076;-88
2021/12/19 00:40:51;;;;;;;71.32;29.75;;;2.50;99.90;;;;;;5032357;28;20071;-88
2021/12/19 00:43:32;;;;;;;86.93;28.40;;;2.40;99.90;;;;;;5032130;28;20025;-89
2021/12/19 00:46:05;;;;;;;69.43;29.13;;;2.50;99.90;;;;;;5032924;28;20047;-88
2021/12/19 00:48:31;;;;;;;71.60;28.85;;;2.50;99.90;;;;;;5016639;28;20025;-89
2021/12/19 00:50:57;;;;;;;90.00;30.20;;;2.50;99.90;;;;;;5032063;28;20056;-89
2021/12/19 00:53:22;;;;;;;98.00;26.98;;;2.50;99.90;;;;;;5032413;28;20025;-88
2021/12/19 00:55:48;;;;;;;201.18;32.58;;;2.40;99.90;;;;;;5031766;28;20114;-89
2021/12/19 00:58:14;;;;;;;75.72;28.77;;;2.30;99.90;;;;;;5033569;28;20076;-89
2021/12/19 01:00:40;;;;;;;84.68;30.70;;;2.50;99.90;;;;;;5032686;28;20080;-88
2021/12/19 01:03:06;;;;;;;85.38;31.17;;;3.00;99.90;;;;;;5031504;28;20054;-87
2021/12/19 01:05:36;;;;;;;79.22;28.48;;;2.40;99.90;;;;;;5032432;28;20109;-88
2021/12/19 01:08:04;;;;;;;88.47;29.33;;;2.40;99.90;;;;;;5034538;28;20021;-88
2021/12/19 01:10:30;;;;;;;92.65;28.73;;;2.50;99.90;;;;;;5014726;28;20025;-88
2021/12/19 01:12:55;;;;;;;75.47;29.70;;;2.00;99.90;;;;;;5014687;28;20033;-88
2021/12/19 01:15:22;;;;;;;83.40;30.02;;;2.10;99.90;;;;;;5032521;28;20025;-88
2021/12/19 01:17:49;;;;;;;78.45;27.50;;;2.10;99.90;;;;;;5014443;28;20541;-89
2021/12/19 01:20:22;;;;;;;75.63;28.77;;;2.80;99.90;;;;;;5014403;28;20040;-89
2021/12/19 01:22:48;;;;;;;70.85;27.25;;;2.10;99.90;;;;;;5015630;28;20033;-89
2021/12/19 01:25:14;;;;;;;169.30;30.05;;;2.20;99.90;;;;;;5032153;28;20037;-88
2021/12/19 01:27:40;;;;;;;119.55;27.92;;;1.20;99.90;;;;;;5032010;28;20037;-88
2021/12/19 01:30:07;;;;;;;73.03;27.55;;;1.90;99.90;;;;;;5031335;28;20101;-88
2021/12/19 01:32:33;;;;;;;67.60;28.13;;;1.80;99.90;;;;;;5033264;28;20025;-88
2021/12/19 01:34:59;;;;;;;193.30;29.63;;;2.50;99.90;;;;;;5032354;28;20032;-88
2021/12/19 01:37:25;;;;;;;181.27;29.85;;;1.80;99.90;;;;;;5014258;28;20171;-88
2021/12/19 01:39:50;;;;;;;105.15;27.35;;;2.40;99.90;;;;;;5014256;28;20103;-88
2021/12/19 01:42:19;;;;;;;107.82;28.70;;;2.10;99.90;;;;;;5034637;28;20115;-88
2021/12/19 01:44:48;;;;;;;125.50;28.05;;;1.70;99.90;;;;;;5033498;28;20478;-88
2021/12/19 01:47:15;;;;;;;67.97;29.00;;;1.80;99.90;;;;;;5017915;28;20025;-88
2021/12/19 01:49:41;;;;;;;150.82;32.38;;;2.70;99.90;;;;;;5035333;28;20068;-88
2021/12/19 01:52:06;;;;;;;81.78;28.52;;;1.80;99.90;;;;;;5017954;28;20025;-88
2021/12/19 01:54:32;;;;;;;181.13;29.58;;;1.70;99.90;;;;;;5035559;28;20029;-89
2021/12/19 01:56:58;;;;;;;207.48;29.42;;;1.70;99.90;;;;;;5012788;28;20073;-88
2021/12/19 01:59:24;;;;;;;256.83;31.65;;;1.70;99.90;;;;;;5035851;28;20037;-88
2021/12/19 02:01:54;;;;;;;167.15;28.20;;;1.60;99.90;;;;;;5018005;28;20040;-88
2021/12/19 02:04:21;;;;;;;257.52;30.23;;;1.80;99.90;;;;;;5035109;28;20452;-88
2021/12/19 02:06:48;;;;;;;338.48;33.45;;;2.10;99.90;;;;;;5035319;28;20026;-88
2021/12/19 02:09:14;;;;;;;264.02;30.63;;;1.50;99.90;;;;;;5034485;28;20029;-89
2021/12/19 02:11:41;;;;;;;100.63;27.70;;;1.50;99.90;;;;;;5019273;28;20028;-88
2021/12/19 02:14:08;;;;;;;132.90;28.55;;;1.50;99.90;;;;;;5036493;28;20029;-88
2021/12/19 02:16:37;;;;;;;85.32;27.23;;;2.30;99.90;;;;;;5035094;28;20037;-88
2021/12/19 02:19:04;;;;;;;103.53;27.45;;;1.60;99.90;;;;;;5035273;28;20478;-88
2021/12/19 02:21:30;;;;;;;154.27;28.98;;;1.60;99.90;;;;;;5034801;28;20044;-88
2021/12/19 02:24:00;;;;;;;158.63;27.42;;;1.60;99.90;;;;;;5016458;28;20432;-88
2021/12/19 02:26:26;;;;;;;121.13;29.33;;;1.60;99.90;;;;;;5034872;28;20370;-89
2021/12/19 02:28:52;;;;;;;148.52;28.77;;;1.50;99.90;;;;;;5017402;28;20025;-88
2021/12/19 02:31:19;;;;;;;151.00;26.42;;;2.00;99.90;;;;;;5034698;28;20079;-87
2021/12/19 02:33:58;;;;;;;157.68;26.95;;;1.40;99.90;;;;;;5034495;28;20056;-88
2021/12/19 02:36:39;;;;;;;119.95;27.67;;;2.10;99.90;;;;;;5016735;28;20493;-89
2021/12/19 02:39:33;;;;;;;204.63;29.33;;;1.60;99.90;;;;;;5030497;28;20025;-88
2021/12/19 02:50:15;;;;;;;95.68;27.75;;;1.80;99.90;;;;;;5035666;28;20465;-88
2021/12/19 02:52:41;;;;;;;66.30;26.95;;;1.90;99.90;;;;;;5033610;28;20021;-88
2021/12/19 02:55:08;;;;;;;72.43;27.65;;;2.00;99.90;;;;;;5034654;28;20095;-88
2021/12/19 02:57:34;;;;;;;136.02;28.77;;;1.90;99.90;;;;;;5017677;28;20042;-88
2021/12/19 03:00:00;;;;;;;245.73;31.80;;;1.70;99.90;;;;;;5033676;28;20033;-88
2021/12/19 03:02:26;;;;;;;304.02;31.05;;;1.70;99.90;;;;;;5034271;28;20457;-88
2021/12/19 03:04:56;;;;;;;91.60;27.98;;;1.80;99.90;;;;;;5033815;28;20095;-88
2021/12/19 03:07:24;;;;;;;167.23;30.02;;;1.70;99.90;;;;;;5016474;28;20543;-89
2021/12/19 03:18:17;;;;;;;367.70;33.92;;;1.90;99.90;;;;;;4989847;28;20094;-88
2021/12/19 03:20:43;;;;;;;99.18;28.27;;;1.70;99.90;;;;;;4972948;28;20030;-88
2021/12/19 03:23:12;;;;;;;77.18;26.75;;;1.70;99.90;;;;;;4991000;28;20043;-88
2021/12/19 03:25:39;;;;;;;83.05;29.30;;;1.70;99.90;;;;;;4990384;28;20588;-88
2021/12/19 03:28:06;;;;;;;117.32;27.98;;;2.40;99.90;;;;;;4990900;28;20034;-88
2021/12/19 03:30:32;;;;;;;106.22;28.65;;;2.30;99.90;;;;;;4975446;28;20041;-87
2021/12/19 03:32:58;;;;;;;93.53;29.73;;;1.90;99.90;;;;;;4991585;28;20023;-88
2021/12/19 03:35:24;;;;;;;89.97;27.90;;;1.80;99.90;;;;;;4990411;28;20537;-88
2021/12/19 03:37:51;;;;;;;98.32;28.35;;;1.90;99.90;;;;;;4990517;28;20037;-88
2021/12/19 03:40:35;;;;;;;132.80;28.30;;;2.30;99.90;;;;;;4974552;28;20031;-88
2021/12/19 03:43:06;;;;;;;104.55;27.80;;;1.70;99.90;;;;;;4990497;28;20471;-88
2021/12/19 03:45:34;;;;;;;96.63;28.08;;;1.70;99.90;;;;;;4975619;28;20459;-88
2021/12/19 03:48:01;;;;;;;74.88;27.42;;;1.70;99.90;;;;;;4985057;28;20034;-88
2021/12/19 03:50:27;;;;;;;72.53;26.90;;;2.00;99.90;;;;;;5032722;28;20032;-88
2021/12/19 03:52:55;;;;;;;117.60;26.23;;;1.80;99.90;;;;;;5034386;28;20026;-88
2021/12/19 03:55:24;;;;;;;84.90;26.77;;;1.90;99.90;;;;;;5033268;28;20542;-88
2021/12/19 03:57:50;;;;;;;87.90;27.13;;;2.00;99.90;;;;;;5015917;28;20445;-88
2021/12/19 04:00:23;;;;;;;202.30;29.48;;;2.00;99.90;;;;;;5032865;28;20072;-88
2021/12/19 04:02:52;;;;;;;108.10;29.23;;;2.00;99.90;;;;;;5030875;28;20390;-88
2021/12/19 04:05:18;;;;;;;269.27;30.17;;;1.90;99.90;;;;;;5031963;28;20156;-88
2021/12/19 04:07:44;;;;;;;95.30;25.77;;;2.50;99.90;;;;;;5016972;28;20108;-88
2021/12/19 04:10:10;;;;;;;76.55;27.10;;;1.80;99.90;;;;;;5032661;28;20387;-88
2021/12/19 04:12:35;;;;;;;88.00;25.33;;;1.90;99.90;;;;;;5015462;28;20025;-88
2021/12/19 04:15:01;;;;;;;171.35;27.38;;;1.70;99.90;;;;;;5032248;28;20034;-88
2021/12/19 04:17:26;;;;;;;131.57;26.27;;;1.50;99.90;;;;;;5032537;28;20489;-88
2021/12/19 04:19:52;;;;;;;124.90;26.45;;;1.70;99.90;;;;;;5015593;28;20080;-89
2021/12/19 04:22:18;;;;;;;93.05;25.77;;;1.70;99.90;;;;;;5032690;28;20037;-88
2021/12/19 04:24:43;;;;;;;87.25;25.75;;;2.30;99.90;;;;;;5032963;28;20041;-88
2021/12/19 04:27:09;;;;;;;86.95;26.02;;;1.90;99.90;;;;;;5014470;28;20482;-88
2021/12/19 04:29:34;;;;;;;82.10;26.10;;;1.80;99.90;;;;;;5015540;28;20473;-89
2021/12/19 04:32:00;;;;;;;153.75;27.13;;;1.90;99.90;;;;;;5032203;28;20084;-88
2021/12/19 04:34:26;;;;;;;74.85;24.52;;;1.70;99.90;;;;;;5032825;28;20037;-88
2021/12/19 04:36:59;;;;;;;57.55;22.42;;;2.40;99.90;;;;;;5032732;28;20067;-88
2021/12/19 05:01:10;;;;;;;54.25;19.10;;;2.20;99.90;;;;;;4952016;28;20416;-88
2021/12/19 05:04:07;;;;;;;71.07;18.73;;;1.60;99.90;;;;;;4937534;28;20085;-88
2021/12/19 05:14:50;;;;;;;50.72;18.13;;;0.80;99.90;;;;;;4949937;28;20570;-88
2021/12/19 05:17:21;;;;;;;76.90;19.00;;;1.40;99.90;;;;;;4955864;28;20473;-88
2021/12/19 05:20:05;;;;;;;74.32;18.30;;;1.20;99.90;;;;;;4957292;28;20163;-88
2021/12/19 05:22:36;;;;;;;58.78;19.23;;;1.20;99.90;;;;;;4953577;28;20027;-88
2021/12/19 05:25:14;;;;;;;66.65;19.40;;;1.30;99.90;;;;;;4944362;28;20114;-88
2021/12/19 05:27:44;;;;;;;80.25;19.88;;;2.10;99.90;;;;;;4993964;28;20505;-88
2021/12/19 05:30:10;;;;;;;65.05;20.13;;;1.50;99.90;;;;;;5035218;28;20033;-88
2021/12/19 05:32:37;;;;;;;62.97;18.55;;;1.50;99.90;;;;;;5035837;28;20466;-88
2021/12/19 05:35:03;;;;;;;50.03;19.25;;;1.50;99.90;;;;;;5018304;28;20056;-88
2021/12/19 05:45:41;;;;;;;57.65;20.20;;;1.40;99.90;;;;;;5021297;28;20528;-88
2021/12/19 05:48:06;;;;;;;59.33;17.75;;;1.20;99.90;;;;;;5035008;28;20033;-88
2021/12/19 05:50:32;;;;;;;65.32;19.05;;;1.20;99.90;;;;;;5035597;28;20033;-88
2021/12/19 05:52:57;;;;;;;72.75;19.67;;;1.10;99.90;;;;;;5017827;28;20028;-88
2021/12/19 05:55:23;;;;;;;55.13;19.25;;;1.30;99.90;;;;;;5038059;28;20448;-89
2021/12/19 05:57:49;;;;;;;51.28;20.50;;;1.40;99.90;;;;;;5017763;28;20460;-88
2021/12/19 06:00:17;;;;;;;64.00;20.17;;;1.20;99.90;;;;;;5034092;28;20080;-88
2021/12/19 06:02:43;;;;;;;54.22;19.17;;;1.30;99.90;;;;;;5032791;28;20029;-88
2021/12/19 06:05:10;;;;;;;50.58;20.35;;;1.50;99.90;;;;;;5019154;28;20042;-88
2021/12/19 06:07:36;;;;;;;45.70;19.90;;;1.20;99.90;;;;;;5017696;28;20026;-88
2021/12/19 06:10:04;;;;;;;48.97;19.40;;;1.30;99.90;;;;;;5018627;28;20033;-88
2021/12/19 06:12:31;;;;;;;46.35;20.35;;;1.30;99.90;;;;;;5002594;28;20022;-87
2021/12/19 06:14:57;;;;;;;42.25;19.33;;;1.90;99.90;;;;;;5034624;28;20477;-89
2021/12/19 06:17:23;;;;;;;42.05;18.63;;;1.10;99.90;;;;;;5035236;28;20072;-88
2021/12/19 06:19:48;;;;;;;42.15;20.30;;;1.00;99.90;;;;;;5035195;28;20029;-88
2021/12/19 06:22:14;;;;;;;39.90;18.05;;;0.60;99.90;;;;;;5017132;28;20030;-88
2021/12/19 06:24:39;;;;;;;40.28;19.00;;;1.00;99.90;;;;;;5034939;28;20447;-88
2021/12/19 06:27:05;;;;;;;36.58;18.00;;;1.60;99.90;;;;;;5033084;28;20029;-88
2021/12/19 06:29:32;;;;;;;37.78;18.27;;;1.20;99.90;;;;;;5035021;28;20539;-88
2021/12/19 06:31:59;;;;;;;42.05;19.65;;;2.10;99.90;;;;;;5034555;28;20026;-88
2021/12/19 06:34:24;;;;;;;41.95;19.15;;;1.00;99.90;;;;;;5037035;28;20033;-88
2021/12/19 06:36:53;;;;;;;41.33;19.55;;;1.20;99.90;;;;;;5019394;28;20067;-88
2021/12/19 06:39:20;;;;;;;42.10;19.58;;;1.40;99.90;;;;;;5034713;28;20040;-89
2021/12/19 06:41:46;;;;;;;40.95;18.50;;;1.40;99.90;;;;;;5033863;28;20499;-88
2021/12/19 06:44:12;;;;;;;37.10;18.67;;;1.60;99.90;;;;;;5017765;28;20057;-88
2021/12/19 06:46:37;;;;;;;39.05;19.67;;;2.30;99.90;;;;;;5016898;28;20397;-88
2021/12/19 06:49:03;;;;;;;38.13;17.90;;;2.40;99.90;;;;;;5035757;28;20033;-88
2021/12/19 06:51:31;;;;;;;41.45;19.90;;;1.70;99.90;;;;;;5016897;28;20454;-88
2021/12/19 06:53:56;;;;;;;40.17;20.10;;;2.50;99.90;;;;;;5033773;28;20110;-88
2021/12/19 06:56:22;;;;;;;41.05;19.63;;;1.60;99.90;;;;;;5034308;28;20038;-88
2021/12/19 06:58:48;;;;;;;43.63;20.55;;;1.70;99.90;;;;;;5034493;28;20029;-88
2021/12/19 07:01:14;;;;;;;38.70;19.48;;;1.70;99.90;;;;;;5034282;28;20036;-88
2021/12/19 07:03:39;;;;;;;39.92;19.42;;;1.70;99.90;;;;;;5016401;28;20033;-88
2021/12/19 07:06:05;;;;;;;40.28;19.42;;;1.60;99.90;;;;;;5033682;28;20034;-88
2021/12/19 07:08:30;;;;;;;40.92;20.25;;;2.10;99.90;;;;;;5017002;28;20029;-88
2021/12/19 07:10:56;;;;;;;39.78;19.67;;;1.40;99.90;;;;;;5034108;28;20104;-88
2021/12/19 07:13:22;;;;;;;39.45;19.95;;;1.50;99.90;;;;;;5035102;28;20520;-88
2021/12/19 07:15:53;;;;;;;39.83;20.08;;;1.30;99.90;;;;;;5034026;28;20030;-88
2021/12/19 07:18:19;;;;;;;39.35;20.80;;;1.50;99.90;;;;;;5016128;28;20030;-89
2021/12/19 07:20:45;;;;;;;38.85;19.80;;;1.60;99.90;;;;;;5033287;28;20021;-88
2021/12/19 07:23:15;;;;;;;40.40;20.52;;;1.50;99.90;;;;;;5035507;28;20040;-88
2021/12/19 07:25:41;;;;;;;41.83;20.05;;;1.60;99.90;;;;;;5017738;28;20517;-88
2021/12/19 07:28:08;;;;;;;42.58;20.38;;;2.00;99.90;;;;;;5033349;28;20030;-88
2021/12/19 07:30:36;;;;;;;38.63;20.02;;;1.50;99.90;;;;;;5017900;28;20025;-88
2021/12/19 07:33:04;;;;;;;41.33;20.83;;;2.00;99.90;;;;;;5015345;28;20059;-87
2021/12/19 07:35:34;;;;;;;41.40;21.73;;;1.90;99.90;;;;;;5034588;28;20095;-91
2021/12/19 07:38:00;;;;;;;35.03;18.95;;;1.70;99.90;;;;;;5016103;28;20078;-91
2021/12/19 07:40:28;;;;;;;38.10;20.02;;;1.80;99.90;;;;;;5033419;28;20448;-91
2021/12/19 07:42:58;;;;;;;42.10;20.50;;;1.80;99.90;;;;;;5016406;28;20036;-91
2021/12/19 07:45:24;;;;;;;37.03;19.10;;;1.80;99.90;;;;;;5015124;28;20048;-91
2021/12/19 07:47:49;;;;;;;36.53;19.23;;;1.60;99.90;;;;;;5033613;28;20112;-89
2021/12/19 07:50:15;;;;;;;36.22;19.17;;;1.50;99.90;;;;;;5015697;28;20120;-91
2021/12/19 07:52:41;;;;;;;38.03;20.40;;;1.80;99.90;;;;;;5032948;28;20025;-90
2021/12/19 07:55:08;;;;;;;39.22;20.20;;;1.90;99.90;;;;;;5033268;28;20037;-91
2021/12/19 07:57:34;;;;;;;39.00;19.98;;;1.90;99.90;;;;;;5033909;28;20124;-91
2021/12/19 07:59:59;;;;;;;38.10;20.33;;;2.00;99.90;;;;;;5033510;28;20116;-92
2021/12/19 08:02:25;;;;;;;37.40;19.27;;;1.70;99.90;;;;;;5037677;28;20025;-92
2021/12/19 08:04:50;;;;;;;39.53;21.27;;;1.70;99.90;;;;;;5033271;28;20040;-92
2021/12/19 08:07:17;;;;;;;39.42;20.77;;;1.90;99.90;;;;;;5033668;28;20053;-92
2021/12/19 08:12:27;;;;;;;44.20;22.27;;;1.90;99.90;;;;;;5034044;28;20036;-92
2021/12/19 08:14:53;;;;;;;43.80;21.63;;;1.90;99.90;;;;;;5032816;28;20053;-92
2021/12/19 08:17:21;;;;;;;40.55;20.45;;;1.90;99.90;;;;;;5015723;28;20057;-92
2021/12/19 08:19:47;;;;;;;42.90;21.63;;;2.00;99.90;;;;;;5027951;28;20035;-92
2021/12/19 08:22:14;;;;;;;41.08;21.17;;;2.10;99.90;;;;;;5030434;28;20037;-90
2021/12/19 08:24:41;;;;;;;44.67;21.67;;;2.00;99.90;;;;;;5032679;28;20041;-91
2021/12/19 08:27:06;;;;;;;46.50;22.55;;;2.10;99.90;;;;;;5033679;28;20059;-92
2021/12/19 08:29:32;;;;;;;44.95;21.95;;;1.70;99.90;;;;;;5051548;28;20480;-93
2021/12/19 08:31:58;;;;;;;41.63;22.42;;;1.90;99.90;;;;;;5037825;28;20034;-92
2021/12/19 08:34:23;;;;;;;46.15;22.02;;;1.90;99.90;;;;;;5017988;28;20037;-92
2021/12/19 08:36:49;;;;;;;48.25;22.65;;;2.60;99.90;;;;;;5033217;28;20025;-92
2021/12/19 08:39:15;;;;;;;50.55;23.85;;;2.30;99.90;;;;;;5014837;28;20025;-92
2021/12/19 08:41:41;;;;;;;56.28;24.15;;;2.40;99.90;;;;;;5032681;28;20099;-91
2021/12/19 08:44:07;;;;;;;53.88;23.38;;;2.40;99.90;;;;;;5048913;28;20481;-91
2021/12/19 08:46:35;;;;;;;59.58;24.27;;;2.40;99.90;;;;;;5041212;28;20121;-92
2021/12/19 08:49:04;;;;;;;60.10;24.73;;;2.60;99.90;;;;;;5033872;28;20078;-92
2021/12/19 08:51:32;;;;;;;54.92;24.90;;;2.70;99.90;;;;;;5039982;28;20032;-92
2021/12/19 08:54:00;;;;;;;54.58;24.55;;;3.20;99.90;;;;;;5021632;28;20025;-92
2021/12/19 08:56:26;;;;;;;57.78;24.05;;;2.70;99.90;;;;;;5034400;28;20034;-92
2021/12/19 08:58:52;;;;;;;58.22;25.25;;;2.70;99.90;;;;;;5025052;28;20049;-89
2021/12/19 09:01:17;;;;;;;64.25;26.67;;;2.90;99.90;;;;;;5022075;28;20494;-92
2021/12/19 09:03:43;;;;;;;64.25;26.88;;;3.00;99.90;;;;;;5019391;28;20054;-92
2021/12/19 09:06:09;;;;;;;57.97;25.67;;;3.10;99.90;;;;;;5019625;28;20414;-92
2021/12/19 09:08:34;;;;;;;71.70;27.52;;;3.20;99.90;;;;;;5019550;28;20029;-91
2021/12/19 09:11:00;;;;;;;62.95;27.30;;;3.00;99.90;;;;;;5021045;28;20044;-91
2021/12/19 09:13:26;;;;;;;67.28;27.25;;;2.80;99.90;;;;;;5025237;28;20110;-92
2021/12/19 09:15:52;;;;;;;66.93;26.83;;;2.70;99.90;;;;;;5019080;28;20084;-92
2021/12/19 09:18:19;;;;;;;68.07;27.15;;;2.60;99.90;;;;;;5018938;28;20021;-93
2021/12/19 09:20:44;;;;;;;68.07;27.35;;;3.10;99.90;;;;;;5020682;28;20057;-92
2021/12/19 09:23:11;;;;;;;70.05;26.83;;;2.60;99.90;;;;;;5021074;28;20091;-91
2021/12/19 09:25:38;;;;;;;67.35;28.20;;;3.20;99.90;;;;;;5039166;28;20041;-91
2021/12/19 09:28:04;;;;;;;70.05;28.58;;;2.90;99.90;;;;;;5038713;28;20029;-91
2021/12/19 09:30:30;;;;;;;70.57;29.13;;;2.80;99.90;;;;;;5022655;28;20560;-91
2021/12/19 09:32:55;;;;;;;69.57;26.88;;;2.70;99.90;;;;;;5039637;28;20052;-90
2021/12/19 09:35:21;;;;;;;64.07;25.75;;;3.00;99.90;;;;;;5038909;28;20044;-90
2021/12/19 09:37:47;;;;;;;64.80;26.60;;;3.10;99.90;;;;;;5038262;28;20108;-89
2021/12/19 09:40:20;;;;;;;61.35;25.65;;;3.50;99.90;;;;;;5038767;28;20049;-89
2021/12/19 09:42:49;;;;;;;65.03;27.50;;;3.10;99.90;;;;;;5021160;28;20022;-89
2021/12/19 09:45:17;;;;;;;60.05;25.77;;;3.20;99.90;;;;;;5037781;28;20123;-91
2021/12/19 09:47:43;;;;;;;63.05;27.30;;;3.50;99.90;;;;;;5036412;28;20462;-92
2021/12/19 09:50:10;;;;;;;63.28;27.33;;;3.40;99.90;;;;;;5045229;28;20112;-92
2021/12/19 09:52:36;;;;;;;67.97;28.17;;;3.50;99.90;;;;;;5020567;28;20029;-92
2021/12/19 09:55:03;;;;;;;58.33;26.25;;;3.60;99.90;;;;;;5038869;28;20030;-90
2021/12/19 09:57:29;;;;;;;62.60;25.85;;;3.70;99.90;;;;;;5017357;28;20129;-92
2021/12/19 09:59:55;;;;;;;59.42;26.08;;;4.10;99.90;;;;;;5038107;28;20100;-92
2021/12/19 10:02:21;;;;;;;56.72;24.90;;;3.80;99.90;;;;;;5034992;28;20029;-90
2021/12/19 10:04:47;;;;;;;58.75;26.55;;;3.70;99.90;;;;;;5036336;28;20057;-92
2021/12/19 10:07:28;;;;;;;60.28;25.73;;;4.10;99.90;;;;;;5025306;28;20030;-88
2021/12/19 10:10:01;;;;;;;59.65;26.00;;;3.60;99.90;;;;;;5023076;28;20037;-88
2021/12/19 10:12:38;;;;;;;55.53;24.10;;;3.70;99.90;;;;;;5025651;28;20026;-91
2021/12/19 10:15:17;;;;;;;60.40;26.50;;;4.20;99.90;;;;;;5015411;28;20058;-92
2021/12/19 10:17:43;;;;;;;55.47;26.50;;;3.80;99.90;;;;;;5032871;28;20041;-91
2021/12/19 10:20:16;;;;;;;66.05;31.52;;;3.70;99.90;;;;;;5016715;28;20029;-91
2021/12/19 10:22:43;;;;;;;65.15;31.85;;;3.60;99.90;;;;;;5031156;28;20032;-93
2021/12/19 10:25:23;;;;;;;53.78;24.85;;;3.60;99.90;;;;;;5023943;28;20037;-92
2021/12/19 10:27:57;;;;;;;54.42;25.80;;;3.70;99.90;;;;;;5013246;28;20116;-92
2021/12/19 10:30:27;;;;;;;57.60;27.92;;;3.90;99.90;;;;;;5014327;28;20057;-92
2021/12/19 10:32:56;;;;;;;67.28;34.45;;;3.80;99.90;;;;;;5034809;28;20433;-92
2021/12/19 10:35:39;;;;;;;42.13;21.52;;;3.90;99.90;;;;;;5030517;28;20037;-91
2021/12/19 10:38:19;;;;;;;48.83;23.33;;;3.90;99.90;;;;;;5032098;28;20045;-93
2021/12/19 10:41:00;;;;;;;53.10;27.58;;;4.00;99.90;;;;;;5031522;28;20053;-92
2021/12/19 10:43:30;;;;;;;52.53;25.10;;;4.20;99.90;;;;;;5012240;28;20470;-93
2021/12/19 10:46:01;;;;;;;43.45;21.23;;;4.20;99.90;;;;;;5031851;28;20033;-92
2021/12/19 10:48:36;;;;;;;41.92;21.38;;;4.20;99.90;;;;;;5015021;28;20025;-93
2021/12/19 10:51:19;;;;;;;54.20;26.30;;;4.20;99.90;;;;;;5030174;28;20080;-92
2021/12/19 10:53:49;;;;;;;43.80;24.27;;;4.20;99.90;;;;;;5036607;28;20033;-92
2021/12/19 10:56:32;;;;;;;40.28;21.33;;;4.10;99.90;;;;;;5035751;28;20045;-92
2021/12/19 10:59:00;;;;;;;47.35;24.02;;;4.20;99.90;;;;;;5036250;28;20037;-92
2021/12/19 11:01:31;;;;;;;40.10;21.17;;;4.30;99.90;;;;;;5038832;28;20032;-93
2021/12/19 11:04:34;;;;;;;39.25;21.27;;;4.40;99.90;;;;;;5033291;28;20068;-89
2021/12/19 11:07:02;;;;;;;34.83;19.17;;;4.80;99.90;;;;;;4941235;28;20054;-90
2021/12/19 11:09:30;;;;;;;35.83;19.55;;;4.40;99.90;;;;;;4953333;28;20118;-95
2021/12/19 11:12:05;;;;;;;33.50;18.52;;;4.50;99.90;;;;;;4958587;28;20039;-88
2021/12/19 11:14:33;;;;;;;36.80;18.98;;;4.50;99.90;;;;;;4969545;28;20069;-92
2021/12/19 11:17:26;;;;;;;38.15;19.75;;;4.50;99.90;;;;;;4961478;28;20476;-96
2021/12/19 11:19:56;;;;;;;36.28;19.40;;;4.50;99.90;;;;;;4953052;28;20031;-96
2021/12/19 11:22:25;;;;;;;37.15;19.05;;;4.40;99.90;;;;;;4968902;28;20038;-96
2021/12/19 11:24:56;;;;;;;36.85;19.83;;;4.10;99.90;;;;;;4939929;29;20035;-95
2021/12/19 11:27:43;;;;;;;38.45;19.90;;;4.50;99.90;;;;;;4955331;28;20034;-96
2021/12/19 11:30:10;;;;;;;41.03;20.17;;;4.40;99.90;;;;;;4969909;28;20030;-96
2021/12/19 11:33:09;;;;;;;37.03;19.98;;;4.10;99.90;;;;;;4961259;28;20035;-96
2021/12/19 11:35:41;;;;;;;36.97;19.90;;;4.20;99.90;;;;;;4958086;28;20044;-94
2021/12/19 11:38:10;;;;;;;37.53;19.73;;;4.80;99.90;;;;;;4965322;28;20031;-96
2021/12/19 11:40:37;;;;;;;36.17;19.15;;;4.40;99.90;;;;;;4987588;28;20045;-96
2021/12/19 11:43:11;;;;;;;35.50;18.70;;;4.90;99.90;;;;;;5035019;28;20513;-95
2021/12/19 11:48:14;;;;;;;32.95;18.13;;;4.40;99.90;;;;;;5034594;28;20056;-96
2021/12/19 11:50:59;;;;;;;35.40;18.65;;;4.40;99.90;;;;;;5044125;28;20048;-96
2021/12/19 11:53:32;;;;;;;38.53;18.65;;;4.10;99.90;;;;;;5022773;28;20038;-91
2021/12/19 11:56:29;;;;;;;37.13;18.50;;;4.10;99.90;;;;;;5042063;28;20038;-96
2021/12/19 12:01:34;;;;;;;42.63;20.98;;;4.20;99.90;;;;;;5308535;23;20054;-96
2021/12/19 12:04:14;;;;;;;32.60;17.23;;;4.20;99.90;;;;;;5002727;28;20038;-96
2021/12/19 12:06:39;;;;;;;35.08;17.73;;;4.20;99.90;;;;;;4979471;28;20093;-95
2021/12/19 12:09:16;;;;;;;37.83;20.05;;;4.00;99.90;;;;;;4999037;28;20170;-88
2021/12/19 12:12:01;;;;;;;36.90;19.25;;;3.90;99.90;;;;;;4993105;28;20030;-89
2021/12/19 12:14:55;;;;;;;38.17;19.50;;;4.00;99.90;;;;;;4992812;28;20053;-90
2021/12/19 12:17:28;;;;;;;34.92;19.83;;;4.50;99.90;;;;;;4991921;28;20096;-88
2021/12/19 12:19:58;;;;;;;36.97;19.52;;;4.30;99.90;;;;;;4992375;28;20050;-89
2021/12/19 12:25:16;;;;;;;36.33;18.08;;;4.30;99.90;;;;;;4992631;28;20047;-96
2021/12/19 12:27:54;;;;;;;42.10;21.10;;;4.30;99.90;;;;;;4978937;28;20022;-92
2021/12/19 12:30:25;;;;;;;35.35;19.25;;;4.90;99.90;;;;;;4992498;28;20069;-90
2021/12/19 12:32:51;;;;;;;36.22;18.67;;;4.30;99.90;;;;;;4993326;28;20442;-91
2021/12/19 12:35:19;;;;;;;34.42;17.10;;;4.10;99.90;;;;;;4992389;28;20088;-91
2021/12/19 12:37:48;;;;;;;33.25;18.00;;;4.00;99.90;;;;;;4992431;28;20033;-91
2021/12/19 12:40:51;;;;;;;40.50;19.67;;;3.90;99.90;;;;;;4992786;28;20172;-92
2021/12/19 12:43:14;;;;;;;35.28;18.42;;;4.00;99.90;;;;;;4992193;28;20415;-91
2021/12/19 12:45:47;;;;;;;32.88;18.27;;;3.90;99.90;;;;;;4992175;28;20034;-91
2021/12/19 12:48:45;;;;;;;36.63;19.63;;;4.00;99.90;;;;;;4992836;28;20084;-91
2021/12/19 12:51:25;;;;;;;36.47;17.75;;;4.50;99.90;;;;;;4979600;28;20368;-92
2021/12/19 12:53:56;;;;;;;37.80;18.63;;;4.10;99.90;;;;;;4992033;28;20340;-91
2021/12/19 12:56:28;;;;;;;43.03;21.55;;;4.10;99.90;;;;;;4975338;28;20969;-91
2021/12/19 12:58:56;;;;;;;42.95;21.48;;;4.00;99.90;;;;;;4992383;28;20372;-91
2021/12/19 13:01:31;;;;;;;39.47;19.92;;;4.00;99.90;;;;;;4989681;28;20049;-91
2021/12/19 13:04:13;;;;;;;38.78;18.73;;;4.00;99.90;;;;;;4992495;28;20049;-91
2021/12/19 13:06:38;;;;;;;43.45;21.60;;;4.00;99.90;;;;;;4977541;28;20042;-91
2021/12/19 13:09:12;;;;;;;41.65;20.02;;;4.00;99.90;;;;;;4975450;28;20034;-90
2021/12/19 13:11:38;;;;;;;36.45;17.75;;;3.90;99.90;;;;;;4991931;28;20375;-91
2021/12/19 13:14:15;;;;;;;37.20;18.98;;;4.30;99.90;;;;;;4974916;28;20161;-93
2021/12/19 13:16:43;;;;;;;36.00;18.48;;;3.80;99.90;;;;;;4992723;28;20034;-95
2021/12/19 13:19:09;;;;;;;38.13;19.25;;;3.90;99.90;;;;;;4993473;28;20040;-95
2021/12/19 13:21:55;;;;;;;36.28;19.02;;;3.80;99.90;;;;;;4993579;28;20400;-96
2021/12/19 13:24:24;;;;;;;33.40;18.05;;;3.70;99.90;;;;;;4992289;28;20297;-92
2021/12/19 13:27:14;;;;;;;34.40;18.42;;;3.50;99.90;;;;;;4993172;28;20034;-95
2021/12/19 13:29:42;;;;;;;34.10;18.15;;;3.60;99.90;;;;;;4972923;28;20541;-94
2021/12/19 13:32:23;;;;;;;39.88;19.45;;;3.60;99.90;;;;;;4974646;28;20050;-94
2021/12/19 13:34:50;;;;;;;35.85;18.77;;;3.80;99.90;;;;;;4968968;28;20081;-95
2021/12/19 13:37:17;;;;;;;40.67;19.92;;;3.70;99.90;;;;;;4976110;28;20030;-92
2021/12/19 13:39:45;;;;;;;35.70;18.85;;;3.70;99.90;;;;;;4995047;28;20041;-92
2021/12/19 13:42:13;;;;;;;42.10;19.95;;;3.70;99.90;;;;;;4995952;28;20029;-92
2021/12/19 13:44:39;;;;;;;38.85;19.83;;;4.10;99.90;;;;;;4995641;28;20034;-91
2021/12/19 13:47:13;;;;;;;36.72;19.20;;;3.50;99.90;;;;;;4995773;28;20033;-92
2021/12/19 13:49:40;;;;;;;35.92;19.02;;;3.60;99.90;;;;;;4995636;28;20030;-90
2021/12/19 13:52:06;;;;;;;35.15;18.40;;;3.30;99.90;;;;;;4978312;28;20407;-90
2021/12/19 13:54:34;;;;;;;38.90;18.67;;;3.70;99.90;;;;;;4962150;28;20088;-91